sensor_id;sensor_type;location;lat;lon;timestamp;P1;durP1;ratioP1;P2;durP2;ratioP2
8716;SDS011;4395;48.554;8.820;2023-11-19T00:00:01;3.63;;;2.83;;
8716;SDS011;4395;48.554;8.820;2023-11-19T00:02:07;2.67;;;2.45;;
8716;SDS011;4395;48.554;8.820;2023-11-19T00:04:11;4.93;;;2.90;;
8716;SDS011;4395;48.554;8.820;2023-11-19T00:06:13;4.50;;;2.50;;
8716;SDS011;4395;48.554;8.820;2023-11-19T00:08:19;2.72;;;2.20;;
8716;SDS011;4395;48.554;8.820;2023-11-19T00:10:22;3.67;;;2.17;;
8716;SDS011;4395;48.554;8.820;2023-11-19T00:12:27;3.33;;;1.88;;
8716;SDS011;4395;48.554;8.820;2023-11-19T00:14:29;1.83;;;1.58;;
8716;SDS011;4395;48.554;8.820;2023-11-19T00:16:31;2.05;;;1.73;;
8716;SDS011;4395;48.554;8.820;2023-11-19T00:18:33;1.98;;;1.27;;
8716;SDS011;4395;48.554;8.820;2023-11-19T00:20:37;1.50;;;1.08;;
8716;SDS011;4395;48.554;8.820;2023-11-19T00:22:40;1.80;;;0.85;;
8716;SDS011;4395;48.554;8.820;2023-11-19T00:24:48;0.95;;;0.80;;
8716;SDS011;4395;48.554;8.820;2023-11-19T00:26:51;1.30;;;0.77;;
8716;SDS011;4395;48.554;8.820;2023-11-19T00:28:54;2.65;;;0.80;;
8716;SDS011;4395;48.554;8.820;2023-11-19T00:30:57;0.77;;;0.77;;
8716;SDS011;4395;48.554;8.820;2023-11-19T00:33:00;1.23;;;0.80;;
8716;SDS011;4395;48.554;8.820;2023-11-19T00:35:02;0.80;;;0.80;;
8716;SDS011;4395;48.554;8.820;2023-11-19T00:37:05;1.25;;;0.60;;
8716;SDS011;4395;48.554;8.820;2023-11-19T00:39:08;2.75;;;0.75;;
8716;SDS011;4395;48.554;8.820;2023-11-19T00:41:12;0.73;;;0.65;;
8716;SDS011;4395;48.554;8.820;2023-11-19T00:43:17;0.90;;;0.60;;
8716;SDS011;4395;48.554;8.820;2023-11-19T00:45:23;1.35;;;1.05;;
8716;SDS011;4395;48.554;8.820;2023-11-19T00:47:27;1.38;;;0.80;;
8716;SDS011;4395;48.554;8.820;2023-11-19T00:49:32;1.08;;;0.65;;
8716;SDS011;4395;48.554;8.820;2023-11-19T00:51:35;0.80;;;0.80;;
8716;SDS011;4395;48.554;8.820;2023-11-19T00:53:38;0.85;;;0.75;;
8716;SDS011;4395;48.554;8.820;2023-11-19T00:55:39;0.80;;;0.70;;
8716;SDS011;4395;48.554;8.820;2023-11-19T00:57:47;1.00;;;0.55;;
8716;SDS011;4395;48.554;8.820;2023-11-19T00:59:50;0.80;;;0.80;;
8716;SDS011;4395;48.554;8.820;2023-11-19T01:01:52;0.77;;;0.77;;
8716;SDS011;4395;48.554;8.820;2023-11-19T01:03:55;3.33;;;0.90;;
8716;SDS011;4395;48.554;8.820;2023-11-19T01:05:59;1.20;;;0.75;;
8716;SDS011;4395;48.554;8.820;2023-11-19T01:08:04;0.52;;;0.52;;
8716;SDS011;4395;48.554;8.820;2023-11-19T01:10:07;1.02;;;0.85;;
8716;SDS011;4395;48.554;8.820;2023-11-19T01:12:11;0.70;;;0.70;;
8716;SDS011;4395;48.554;8.820;2023-11-19T01:14:15;0.90;;;0.60;;
8716;SDS011;4395;48.554;8.820;2023-11-19T01:16:19;1.08;;;0.65;;
8716;SDS011;4395;48.554;8.820;2023-11-19T01:18:22;1.08;;;0.60;;
8716;SDS011;4395;48.554;8.820;2023-11-19T01:20:24;0.95;;;0.85;;
8716;SDS011;4395;48.554;8.820;2023-11-19T01:22:29;0.80;;;0.80;;
8716;SDS011;4395;48.554;8.820;2023-11-19T01:24:32;0.82;;;0.82;;
8716;SDS011;4395;48.554;8.820;2023-11-19T01:26:35;3.60;;;1.10;;
8716;SDS011;4395;48.554;8.820;2023-11-19T01:28:38;6.28;;;3.33;;
8716;SDS011;4395;48.554;8.820;2023-11-19T01:30:54;2.70;;;1.98;;
8716;SDS011;4395;48.554;8.820;2023-11-19T01:32:57;3.95;;;1.45;;
8716;SDS011;4395;48.554;8.820;2023-11-19T01:35:00;4.60;;;3.40;;
8716;SDS011;4395;48.554;8.820;2023-11-19T01:37:03;1.83;;;1.25;;
8716;SDS011;4395;48.554;8.820;2023-11-19T01:39:06;3.47;;;2.35;;
8716;SDS011;4395;48.554;8.820;2023-11-19T01:41:09;2.95;;;2.17;;
8716;SDS011;4395;48.554;8.820;2023-11-19T01:43:12;8.38;;;4.63;;
8716;SDS011;4395;48.554;8.820;2023-11-19T01:45:33;6.03;;;3.97;;
8716;SDS011;4395;48.554;8.820;2023-11-19T01:47:37;2.53;;;2.10;;
8716;SDS011;4395;48.554;8.820;2023-11-19T01:49:42;4.75;;;3.30;;
8716;SDS011;4395;48.554;8.820;2023-11-19T01:51:44;4.05;;;3.00;;
8716;SDS011;4395;48.554;8.820;2023-11-19T01:53:47;4.70;;;3.70;;
8716;SDS011;4395;48.554;8.820;2023-11-19T01:55:51;5.13;;;3.78;;
8716;SDS011;4395;48.554;8.820;2023-11-19T01:57:55;2.97;;;1.08;;
8716;SDS011;4395;48.554;8.820;2023-11-19T02:00:02;0.60;;;0.60;;
8716;SDS011;4395;48.554;8.820;2023-11-19T02:02:13;1.35;;;1.20;;
8716;SDS011;4395;48.554;8.820;2023-11-19T02:04:18;2.13;;;1.80;;
8716;SDS011;4395;48.554;8.820;2023-11-19T02:06:22;3.35;;;2.15;;
8716;SDS011;4395;48.554;8.820;2023-11-19T02:08:25;4.57;;;2.47;;
8716;SDS011;4395;48.554;8.820;2023-11-19T02:10:28;3.70;;;1.95;;
8716;SDS011;4395;48.554;8.820;2023-11-19T02:12:30;2.22;;;1.83;;
8716;SDS011;4395;48.554;8.820;2023-11-19T02:14:35;1.08;;;0.80;;
8716;SDS011;4395;48.554;8.820;2023-11-19T02:16:38;2.40;;;1.70;;
8716;SDS011;4395;48.554;8.820;2023-11-19T02:18:41;1.02;;;0.70;;
8716;SDS011;4395;48.554;8.820;2023-11-19T02:20:45;1.42;;;1.17;;
8716;SDS011;4395;48.554;8.820;2023-11-19T02:22:50;1.80;;;1.67;;
8716;SDS011;4395;48.554;8.820;2023-11-19T02:24:54;3.00;;;2.35;;
8716;SDS011;4395;48.554;8.820;2023-11-19T02:27:06;1.75;;;1.65;;
8716;SDS011;4395;48.554;8.820;2023-11-19T02:29:14;1.85;;;1.60;;
8716;SDS011;4395;48.554;8.820;2023-11-19T02:31:17;1.17;;;0.95;;
8716;SDS011;4395;48.554;8.820;2023-11-19T02:33:20;1.70;;;1.48;;
8716;SDS011;4395;48.554;8.820;2023-11-19T02:35:22;1.52;;;1.25;;
8716;SDS011;4395;48.554;8.820;2023-11-19T02:37:25;4.15;;;3.60;;
8716;SDS011;4395;48.554;8.820;2023-11-19T02:39:29;2.65;;;2.42;;
8716;SDS011;4395;48.554;8.820;2023-11-19T02:41:33;0.60;;;0.60;;
8716;SDS011;4395;48.554;8.820;2023-11-19T02:43:36;2.08;;;1.48;;
8716;SDS011;4395;48.554;8.820;2023-11-19T02:45:41;0.68;;;0.68;;
8716;SDS011;4395;48.554;8.820;2023-11-19T02:47:47;1.27;;;0.70;;
8716;SDS011;4395;48.554;8.820;2023-11-19T02:49:50;1.73;;;1.55;;
8716;SDS011;4395;48.554;8.820;2023-11-19T02:51:54;1.25;;;1.15;;
8716;SDS011;4395;48.554;8.820;2023-11-19T02:53:57;2.17;;;0.85;;
8716;SDS011;4395;48.554;8.820;2023-11-19T02:56:00;1.27;;;0.70;;
8716;SDS011;4395;48.554;8.820;2023-11-19T02:58:11;0.35;;;0.35;;
8716;SDS011;4395;48.554;8.820;2023-11-19T03:00:22;0.47;;;0.30;;
8716;SDS011;4395;48.554;8.820;2023-11-19T03:02:26;0.35;;;0.35;;
8716;SDS011;4395;48.554;8.820;2023-11-19T03:04:35;0.10;;;0.10;;
8716;SDS011;4395;48.554;8.820;2023-11-19T03:06:39;0.10;;;0.10;;
8716;SDS011;4395;48.554;8.820;2023-11-19T03:08:43;0.22;;;0.22;;
8716;SDS011;4395;48.554;8.820;2023-11-19T03:10:45;0.00;;;0.00;;
8716;SDS011;4395;48.554;8.820;2023-11-19T03:12:48;0.45;;;0.10;;
8716;SDS011;4395;48.554;8.820;2023-11-19T03:14:51;0.10;;;0.10;;
8716;SDS011;4395;48.554;8.820;2023-11-19T03:16:57;1.10;;;0.20;;
8716;SDS011;4395;48.554;8.820;2023-11-19T03:19:02;2.22;;;1.73;;
8716;SDS011;4395;48.554;8.820;2023-11-19T03:21:06;2.53;;;2.08;;
8716;SDS011;4395;48.554;8.820;2023-11-19T03:23:09;1.23;;;0.80;;
8716;SDS011;4395;48.554;8.820;2023-11-19T03:25:12;0.30;;;0.30;;
8716;SDS011;4395;48.554;8.820;2023-11-19T03:27:15;0.30;;;0.30;;
8716;SDS011;4395;48.554;8.820;2023-11-19T03:29:18;0.55;;;0.30;;
8716;SDS011;4395;48.554;8.820;2023-11-19T03:31:20;0.20;;;0.20;;
8716;SDS011;4395;48.554;8.820;2023-11-19T03:33:23;0.22;;;0.13;;
8716;SDS011;4395;48.554;8.820;2023-11-19T03:35:28;0.10;;;0.10;;
8716;SDS011;4395;48.554;8.820;2023-11-19T03:37:32;0.20;;;0.20;;
8716;SDS011;4395;48.554;8.820;2023-11-19T03:39:35;0.10;;;0.10;;
8716;SDS011;4395;48.554;8.820;2023-11-19T03:41:38;0.60;;;0.15;;
8716;SDS011;4395;48.554;8.820;2023-11-19T03:43:43;1.20;;;0.10;;
8716;SDS011;4395;48.554;8.820;2023-11-19T03:45:46;0.30;;;0.15;;
8716;SDS011;4395;48.554;8.820;2023-11-19T03:47:49;0.28;;;0.10;;
8716;SDS011;4395;48.554;8.820;2023-11-19T03:49:52;0.38;;;0.38;;
8716;SDS011;4395;48.554;8.820;2023-11-19T03:51:55;0.32;;;0.32;;
8716;SDS011;4395;48.554;8.820;2023-11-19T03:53:58;0.17;;;0.13;;
8716;SDS011;4395;48.554;8.820;2023-11-19T03:56:01;0.57;;;0.57;;
8716;SDS011;4395;48.554;8.820;2023-11-19T03:58:05;1.02;;;0.17;;
8716;SDS011;4395;48.554;8.820;2023-11-19T04:00:08;0.10;;;0.10;;
8716;SDS011;4395;48.554;8.820;2023-11-19T04:02:15;0.10;;;0.10;;
8716;SDS011;4395;48.554;8.820;2023-11-19T04:04:18;0.25;;;0.20;;
8716;SDS011;4395;48.554;8.820;2023-11-19T04:06:21;0.05;;;0.05;;
8716;SDS011;4395;48.554;8.820;2023-11-19T04:08:25;2.92;;;2.20;;
8716;SDS011;4395;48.554;8.820;2023-11-19T04:10:28;2.60;;;2.40;;
8716;SDS011;4395;48.554;8.820;2023-11-19T04:12:31;2.88;;;1.80;;
8716;SDS011;4395;48.554;8.820;2023-11-19T04:14:33;0.88;;;0.73;;
8716;SDS011;4395;48.554;8.820;2023-11-19T04:16:36;0.88;;;0.22;;
8716;SDS011;4395;48.554;8.820;2023-11-19T04:18:40;0.32;;;0.30;;
8716;SDS011;4395;48.554;8.820;2023-11-19T04:20:42;0.73;;;0.73;;
8716;SDS011;4395;48.554;8.820;2023-11-19T04:22:45;0.63;;;0.63;;
8716;SDS011;4395;48.554;8.820;2023-11-19T04:24:49;1.00;;;1.00;;
8716;SDS011;4395;48.554;8.820;2023-11-19T04:26:52;0.38;;;0.38;;
8716;SDS011;4395;48.554;8.820;2023-11-19T04:28:55;0.25;;;0.25;;
8716;SDS011;4395;48.554;8.820;2023-11-19T04:30:57;0.60;;;0.60;;
8716;SDS011;4395;48.554;8.820;2023-11-19T04:33:00;0.40;;;0.40;;
8716;SDS011;4395;48.554;8.820;2023-11-19T04:35:02;0.40;;;0.40;;
8716;SDS011;4395;48.554;8.820;2023-11-19T04:37:05;0.47;;;0.47;;
8716;SDS011;4395;48.554;8.820;2023-11-19T04:39:11;0.30;;;0.30;;
8716;SDS011;4395;48.554;8.820;2023-11-19T04:41:15;0.57;;;0.30;;
8716;SDS011;4395;48.554;8.820;2023-11-19T04:43:18;0.25;;;0.25;;
8716;SDS011;4395;48.554;8.820;2023-11-19T04:45:22;0.55;;;0.30;;
8716;SDS011;4395;48.554;8.820;2023-11-19T04:47:24;0.10;;;0.10;;
8716;SDS011;4395;48.554;8.820;2023-11-19T04:49:26;0.30;;;0.30;;
8716;SDS011;4395;48.554;8.820;2023-11-19T04:51:29;0.50;;;0.50;;
8716;SDS011;4395;48.554;8.820;2023-11-19T04:53:32;0.30;;;0.30;;
8716;SDS011;4395;48.554;8.820;2023-11-19T04:55:35;0.70;;;0.70;;
8716;SDS011;4395;48.554;8.820;2023-11-19T04:57:39;0.40;;;0.10;;
8716;SDS011;4395;48.554;8.820;2023-11-19T04:59:42;0.28;;;0.28;;
8716;SDS011;4395;48.554;8.820;2023-11-19T05:01:46;12.70;;;1.10;;
8716;SDS011;4395;48.554;8.820;2023-11-19T05:03:49;1.15;;;1.10;;
8716;SDS011;4395;48.554;8.820;2023-11-19T05:05:52;0.70;;;0.70;;
8716;SDS011;4395;48.554;8.820;2023-11-19T05:07:55;1.55;;;0.82;;
8716;SDS011;4395;48.554;8.820;2023-11-19T05:09:58;1.42;;;0.52;;
8716;SDS011;4395;48.554;8.820;2023-11-19T05:12:01;0.80;;;0.80;;
8716;SDS011;4395;48.554;8.820;2023-11-19T05:14:06;0.77;;;0.77;;
8716;SDS011;4395;48.554;8.820;2023-11-19T05:16:10;2.65;;;1.17;;
8716;SDS011;4395;48.554;8.820;2023-11-19T05:18:15;2.20;;;1.48;;
8716;SDS011;4395;48.554;8.820;2023-11-19T05:20:18;0.60;;;0.60;;
8716;SDS011;4395;48.554;8.820;2023-11-19T05:22:21;0.60;;;0.60;;
8716;SDS011;4395;48.554;8.820;2023-11-19T05:24:24;0.50;;;0.40;;
8716;SDS011;4395;48.554;8.820;2023-11-19T05:26:27;0.40;;;0.40;;
8716;SDS011;4395;48.554;8.820;2023-11-19T05:28:29;1.27;;;0.40;;
8716;SDS011;4395;48.554;8.820;2023-11-19T05:30:33;0.40;;;0.40;;
8716;SDS011;4395;48.554;8.820;2023-11-19T05:32:36;0.73;;;0.73;;
8716;SDS011;4395;48.554;8.820;2023-11-19T05:34:39;0.32;;;0.30;;
8716;SDS011;4395;48.554;8.820;2023-11-19T05:36:45;0.20;;;0.20;;
8716;SDS011;4395;48.554;8.820;2023-11-19T05:38:48;0.40;;;0.40;;
8716;SDS011;4395;48.554;8.820;2023-11-19T05:40:51;0.30;;;0.30;;
8716;SDS011;4395;48.554;8.820;2023-11-19T05:42:53;1.48;;;1.38;;
8716;SDS011;4395;48.554;8.820;2023-11-19T05:44:56;0.60;;;0.60;;
8716;SDS011;4395;48.554;8.820;2023-11-19T05:47:00;0.30;;;0.30;;
8716;SDS011;4395;48.554;8.820;2023-11-19T05:49:03;0.30;;;0.20;;
8716;SDS011;4395;48.554;8.820;2023-11-19T05:51:06;0.45;;;0.40;;
8716;SDS011;4395;48.554;8.820;2023-11-19T05:53:09;0.55;;;0.40;;
8716;SDS011;4395;48.554;8.820;2023-11-19T05:55:14;0.15;;;0.15;;
8716;SDS011;4395;48.554;8.820;2023-11-19T05:57:17;0.90;;;0.40;;
8716;SDS011;4395;48.554;8.820;2023-11-19T05:59:24;1.83;;;1.73;;
8716;SDS011;4395;48.554;8.820;2023-11-19T06:01:27;5.38;;;3.00;;
8716;SDS011;4395;48.554;8.820;2023-11-19T06:03:32;2.67;;;1.90;;
8716;SDS011;4395;48.554;8.820;2023-11-19T06:05:35;1.77;;;1.67;;
8716;SDS011;4395;48.554;8.820;2023-11-19T06:07:38;0.98;;;0.90;;
8716;SDS011;4395;48.554;8.820;2023-11-19T06:09:40;1.73;;;1.63;;
8716;SDS011;4395;48.554;8.820;2023-11-19T06:11:43;2.45;;;2.10;;
8716;SDS011;4395;48.554;8.820;2023-11-19T06:13:48;1.73;;;1.27;;
8716;SDS011;4395;48.554;8.820;2023-11-19T06:15:52;0.60;;;0.60;;
8716;SDS011;4395;48.554;8.820;2023-11-19T06:17:55;5.82;;;5.32;;
8716;SDS011;4395;48.554;8.820;2023-11-19T06:20:00;5.28;;;4.88;;
8716;SDS011;4395;48.554;8.820;2023-11-19T06:22:05;2.90;;;2.70;;
8716;SDS011;4395;48.554;8.820;2023-11-19T06:24:08;9.88;;;8.98;;
8716;SDS011;4395;48.554;8.820;2023-11-19T06:26:11;13.82;;;12.18;;
8716;SDS011;4395;48.554;8.820;2023-11-19T06:28:15;15.15;;;11.73;;
8716;SDS011;4395;48.554;8.820;2023-11-19T06:30:18;6.80;;;6.10;;
8716;SDS011;4395;48.554;8.820;2023-11-19T06:32:21;23.27;;;17.33;;
8716;SDS011;4395;48.554;8.820;2023-11-19T06:34:23;8.93;;;7.18;;
8716;SDS011;4395;48.554;8.820;2023-11-19T06:36:27;20.83;;;18.55;;
8716;SDS011;4395;48.554;8.820;2023-11-19T06:38:30;81.63;;;60.90;;
8716;SDS011;4395;48.554;8.820;2023-11-19T06:40:33;39.30;;;32.42;;
8716;SDS011;4395;48.554;8.820;2023-11-19T06:42:37;14.43;;;10.82;;
8716;SDS011;4395;48.554;8.820;2023-11-19T06:44:41;14.70;;;10.40;;
8716;SDS011;4395;48.554;8.820;2023-11-19T06:46:43;6.95;;;5.82;;
8716;SDS011;4395;48.554;8.820;2023-11-19T06:48:46;1.58;;;1.48;;
8716;SDS011;4395;48.554;8.820;2023-11-19T06:50:49;0.85;;;0.80;;
8716;SDS011;4395;48.554;8.820;2023-11-19T06:52:53;0.90;;;0.90;;
8716;SDS011;4395;48.554;8.820;2023-11-19T06:54:56;2.90;;;2.60;;
8716;SDS011;4395;48.554;8.820;2023-11-19T06:57:02;3.55;;;3.25;;
8716;SDS011;4395;48.554;8.820;2023-11-19T06:59:06;2.45;;;2.25;;
8716;SDS011;4395;48.554;8.820;2023-11-19T07:01:09;2.80;;;2.60;;
8716;SDS011;4395;48.554;8.820;2023-11-19T07:03:12;13.52;;;11.68;;
8716;SDS011;4395;48.554;8.820;2023-11-19T07:05:16;9.82;;;8.93;;
8716;SDS011;4395;48.554;8.820;2023-11-19T07:07:19;8.38;;;7.63;;
8716;SDS011;4395;48.554;8.820;2023-11-19T07:09:22;6.35;;;5.68;;
8716;SDS011;4395;48.554;8.820;2023-11-19T07:11:25;2.63;;;2.42;;
8716;SDS011;4395;48.554;8.820;2023-11-19T07:13:28;5.55;;;5.00;;
8716;SDS011;4395;48.554;8.820;2023-11-19T07:15:31;2.10;;;2.00;;
8716;SDS011;4395;48.554;8.820;2023-11-19T07:17:34;2.45;;;2.25;;
8716;SDS011;4395;48.554;8.820;2023-11-19T07:19:37;2.35;;;2.08;;
8716;SDS011;4395;48.554;8.820;2023-11-19T07:21:40;0.90;;;0.80;;
8716;SDS011;4395;48.554;8.820;2023-11-19T07:23:45;1.60;;;1.30;;
8716;SDS011;4395;48.554;8.820;2023-11-19T07:25:50;2.55;;;2.35;;
8716;SDS011;4395;48.554;8.820;2023-11-19T07:27:54;0.70;;;0.68;;
8716;SDS011;4395;48.554;8.820;2023-11-19T07:29:57;0.60;;;0.60;;
8716;SDS011;4395;48.554;8.820;2023-11-19T07:32:00;0.73;;;0.40;;
8716;SDS011;4395;48.554;8.820;2023-11-19T07:34:03;0.90;;;0.50;;
8716;SDS011;4395;48.554;8.820;2023-11-19T07:36:06;1.02;;;1.00;;
8716;SDS011;4395;48.554;8.820;2023-11-19T07:38:10;1.27;;;0.90;;
8716;SDS011;4395;48.554;8.820;2023-11-19T07:40:13;1.77;;;1.30;;
8716;SDS011;4395;48.554;8.820;2023-11-19T07:42:17;2.45;;;1.70;;
8716;SDS011;4395;48.554;8.820;2023-11-19T07:44:20;4.80;;;1.80;;
8716;SDS011;4395;48.554;8.820;2023-11-19T07:46:22;1.10;;;1.00;;
8716;SDS011;4395;48.554;8.820;2023-11-19T07:48:26;1.15;;;1.02;;
8716;SDS011;4395;48.554;8.820;2023-11-19T07:50:28;1.42;;;1.30;;
8716;SDS011;4395;48.554;8.820;2023-11-19T07:52:33;1.23;;;0.85;;
8716;SDS011;4395;48.554;8.820;2023-11-19T07:54:35;0.85;;;0.85;;
8716;SDS011;4395;48.554;8.820;2023-11-19T07:56:38;0.82;;;0.60;;
8716;SDS011;4395;48.554;8.820;2023-11-19T07:58:42;1.52;;;1.42;;
8716;SDS011;4395;48.554;8.820;2023-11-19T08:00:45;3.13;;;2.83;;
8716;SDS011;4395;48.554;8.820;2023-11-19T08:02:48;2.92;;;2.72;;
8716;SDS011;4395;48.554;8.820;2023-11-19T08:04:51;3.92;;;3.30;;
8716;SDS011;4395;48.554;8.820;2023-11-19T08:06:56;3.28;;;3.00;;
8716;SDS011;4395;48.554;8.820;2023-11-19T08:08:59;2.67;;;2.47;;
8716;SDS011;4395;48.554;8.820;2023-11-19T08:11:02;3.03;;;1.98;;
8716;SDS011;4395;48.554;8.820;2023-11-19T08:13:06;2.50;;;2.30;;
8716;SDS011;4395;48.554;8.820;2023-11-19T08:15:11;2.83;;;2.42;;
8716;SDS011;4395;48.554;8.820;2023-11-19T08:17:14;1.75;;;1.63;;
8716;SDS011;4395;48.554;8.820;2023-11-19T08:19:17;1.63;;;1.40;;
8716;SDS011;4395;48.554;8.820;2023-11-19T08:21:20;1.80;;;1.25;;
8716;SDS011;4395;48.554;8.820;2023-11-19T08:23:24;2.28;;;1.58;;
8716;SDS011;4395;48.554;8.820;2023-11-19T08:25:27;2.75;;;2.17;;
8716;SDS011;4395;48.554;8.820;2023-11-19T08:27:30;2.83;;;1.70;;
8716;SDS011;4395;48.554;8.820;2023-11-19T08:29:32;1.05;;;1.00;;
8716;SDS011;4395;48.554;8.820;2023-11-19T08:31:37;1.02;;;1.00;;
8716;SDS011;4395;48.554;8.820;2023-11-19T08:33:40;2.65;;;1.30;;
8716;SDS011;4395;48.554;8.820;2023-11-19T08:35:42;2.05;;;1.73;;
8716;SDS011;4395;48.554;8.820;2023-11-19T08:37:46;1.85;;;1.60;;
8716;SDS011;4395;48.554;8.820;2023-11-19T08:39:49;2.28;;;2.08;;
8716;SDS011;4395;48.554;8.820;2023-11-19T08:41:53;1.23;;;1.10;;
8716;SDS011;4395;48.554;8.820;2023-11-19T08:43:56;1.02;;;1.00;;
8716;SDS011;4395;48.554;8.820;2023-11-19T08:45:59;2.42;;;1.98;;
8716;SDS011;4395;48.554;8.820;2023-11-19T08:48:04;3.15;;;1.80;;
8716;SDS011;4395;48.554;8.820;2023-11-19T08:50:07;1.08;;;0.98;;
8716;SDS011;4395;48.554;8.820;2023-11-19T08:52:10;1.05;;;0.90;;
8716;SDS011;4395;48.554;8.820;2023-11-19T08:54:13;0.68;;;0.68;;
8716;SDS011;4395;48.554;8.820;2023-11-19T08:56:16;1.30;;;0.80;;
8716;SDS011;4395;48.554;8.820;2023-11-19T08:58:18;2.00;;;1.08;;
8716;SDS011;4395;48.554;8.820;2023-11-19T09:00:21;1.55;;;1.45;;
8716;SDS011;4395;48.554;8.820;2023-11-19T09:02:24;1.52;;;0.98;;
8716;SDS011;4395;48.554;8.820;2023-11-19T09:04:27;1.50;;;0.90;;
8716;SDS011;4395;48.554;8.820;2023-11-19T09:06:30;0.88;;;0.88;;
8716;SDS011;4395;48.554;8.820;2023-11-19T09:08:33;1.38;;;1.27;;
8716;SDS011;4395;48.554;8.820;2023-11-19T09:10:36;1.40;;;1.30;;
8716;SDS011;4395;48.554;8.820;2023-11-19T09:12:39;3.25;;;2.40;;
8716;SDS011;4395;48.554;8.820;2023-11-19T09:14:42;1.23;;;0.60;;
8716;SDS011;4395;48.554;8.820;2023-11-19T09:16:44;1.02;;;0.90;;
8716;SDS011;4395;48.554;8.820;2023-11-19T09:18:47;2.10;;;1.02;;
8716;SDS011;4395;48.554;8.820;2023-11-19T09:20:51;1.75;;;0.80;;
8716;SDS011;4395;48.554;8.820;2023-11-19T09:22:54;0.57;;;0.57;;
8716;SDS011;4395;48.554;8.820;2023-11-19T09:24:56;0.73;;;0.73;;
8716;SDS011;4395;48.554;8.820;2023-11-19T09:27:01;0.88;;;0.73;;
8716;SDS011;4395;48.554;8.820;2023-11-19T09:29:03;0.85;;;0.85;;
8716;SDS011;4395;48.554;8.820;2023-11-19T09:31:12;1.10;;;1.00;;
8716;SDS011;4395;48.554;8.820;2023-11-19T09:33:16;0.60;;;0.50;;
8716;SDS011;4395;48.554;8.820;2023-11-19T09:35:19;0.93;;;0.80;;
8716;SDS011;4395;48.554;8.820;2023-11-19T09:37:23;1.17;;;1.07;;
8716;SDS011;4395;48.554;8.820;2023-11-19T09:39:26;1.63;;;1.00;;
8716;SDS011;4395;48.554;8.820;2023-11-19T09:41:29;1.60;;;1.20;;
8716;SDS011;4395;48.554;8.820;2023-11-19T09:43:32;1.88;;;1.77;;
8716;SDS011;4395;48.554;8.820;2023-11-19T09:45:38;1.08;;;0.85;;
8716;SDS011;4395;48.554;8.820;2023-11-19T09:47:50;1.17;;;0.90;;
8716;SDS011;4395;48.554;8.820;2023-11-19T09:49:55;0.30;;;0.30;;
8716;SDS011;4395;48.554;8.820;2023-11-19T09:51:59;0.75;;;0.55;;
8716;SDS011;4395;48.554;8.820;2023-11-19T09:54:03;0.50;;;0.50;;
8716;SDS011;4395;48.554;8.820;2023-11-19T09:56:06;0.63;;;0.60;;
8716;SDS011;4395;48.554;8.820;2023-11-19T09:58:11;0.90;;;0.90;;
8716;SDS011;4395;48.554;8.820;2023-11-19T10:00:16;0.60;;;0.60;;
8716;SDS011;4395;48.554;8.820;2023-11-19T10:02:21;1.27;;;0.77;;
8716;SDS011;4395;48.554;8.820;2023-11-19T10:04:24;0.83;;;0.50;;
8716;SDS011;4395;48.554;8.820;2023-11-19T10:06:30;1.20;;;0.90;;
8716;SDS011;4395;48.554;8.820;2023-11-19T10:08:33;0.70;;;0.70;;
8716;SDS011;4395;48.554;8.820;2023-11-19T10:10:38;0.68;;;0.68;;
8716;SDS011;4395;48.554;8.820;2023-11-19T10:12:40;1.27;;;0.73;;
8716;SDS011;4395;48.554;8.820;2023-11-19T10:14:58;0.60;;;0.60;;
8716;SDS011;4395;48.554;8.820;2023-11-19T10:17:01;0.52;;;0.10;;
8716;SDS011;4395;48.554;8.820;2023-11-19T10:19:05;0.30;;;0.30;;
8716;SDS011;4395;48.554;8.820;2023-11-19T10:21:07;0.20;;;0.20;;
8716;SDS011;4395;48.554;8.820;2023-11-19T10:23:13;0.93;;;0.20;;
8716;SDS011;4395;48.554;8.820;2023-11-19T10:25:22;0.43;;;0.43;;
8716;SDS011;4395;48.554;8.820;2023-11-19T10:27:27;0.23;;;0.20;;
8716;SDS011;4395;48.554;8.820;2023-11-19T10:29:31;0.60;;;0.50;;
8716;SDS011;4395;48.554;8.820;2023-11-19T10:31:33;0.90;;;0.43;;
8716;SDS011;4395;48.554;8.820;2023-11-19T10:33:35;1.60;;;0.30;;
8716;SDS011;4395;48.554;8.820;2023-11-19T10:35:50;0.50;;;0.50;;
8716;SDS011;4395;48.554;8.820;2023-11-19T10:37:58;0.20;;;0.20;;
8716;SDS011;4395;48.554;8.820;2023-11-19T10:40:03;0.90;;;0.30;;
8716;SDS011;4395;48.554;8.820;2023-11-19T10:42:14;1.03;;;0.60;;
8716;SDS011;4395;48.554;8.820;2023-11-19T10:44:32;4.03;;;0.83;;
8716;SDS011;4395;48.554;8.820;2023-11-19T10:46:38;0.73;;;0.40;;
8716;SDS011;4395;48.554;8.820;2023-11-19T10:48:42;1.57;;;0.60;;
8716;SDS011;4395;48.554;8.820;2023-11-19T10:50:45;1.03;;;0.37;;
8716;SDS011;4395;48.554;8.820;2023-11-19T10:52:52;1.00;;;0.50;;
8716;SDS011;4395;48.554;8.820;2023-11-19T10:55:00;0.67;;;0.30;;
8716;SDS011;4395;48.554;8.820;2023-11-19T10:57:06;1.60;;;0.97;;
8716;SDS011;4395;48.554;8.820;2023-11-19T10:59:14;1.03;;;0.50;;
8716;SDS011;4395;48.554;8.820;2023-11-19T11:01:22;2.00;;;0.40;;
8716;SDS011;4395;48.554;8.820;2023-11-19T11:03:29;0.70;;;0.40;;
8716;SDS011;4395;48.554;8.820;2023-11-19T11:05:36;0.83;;;0.20;;
8716;SDS011;4395;48.554;8.820;2023-11-19T11:07:40;2.17;;;0.67;;
8716;SDS011;4395;48.554;8.820;2023-11-19T11:09:43;0.60;;;0.40;;
8716;SDS011;4395;48.554;8.820;2023-11-19T11:11:47;0.97;;;0.60;;
8716;SDS011;4395;48.554;8.820;2023-11-19T11:13:52;2.27;;;0.60;;
8716;SDS011;4395;48.554;8.820;2023-11-19T11:15:56;0.73;;;0.30;;
8716;SDS011;4395;48.554;8.820;2023-11-19T11:18:02;2.07;;;0.80;;
8716;SDS011;4395;48.554;8.820;2023-11-19T11:20:06;0.93;;;0.30;;
8716;SDS011;4395;48.554;8.820;2023-11-19T11:22:11;1.00;;;0.50;;
8716;SDS011;4395;48.554;8.820;2023-11-19T11:24:26;2.57;;;0.60;;
8716;SDS011;4395;48.554;8.820;2023-11-19T11:26:56;0.53;;;0.30;;
8716;SDS011;4395;48.554;8.820;2023-11-19T11:29:24;1.60;;;0.33;;
8716;SDS011;4395;48.554;8.820;2023-11-19T11:31:36;2.10;;;0.60;;
8716;SDS011;4395;48.554;8.820;2023-11-19T11:33:58;0.60;;;0.40;;
8716;SDS011;4395;48.554;8.820;2023-11-19T11:36:16;1.40;;;0.20;;
8716;SDS011;4395;48.554;8.820;2023-11-19T11:38:22;0.20;;;0.20;;
8716;SDS011;4395;48.554;8.820;2023-11-19T11:40:26;1.53;;;0.10;;
8716;SDS011;4395;48.554;8.820;2023-11-19T11:42:31;0.20;;;0.20;;
8716;SDS011;4395;48.554;8.820;2023-11-19T11:47:11;0.27;;;0.20;;
8716;SDS011;4395;48.554;8.820;2023-11-19T11:49:15;0.80;;;0.60;;
8716;SDS011;4395;48.554;8.820;2023-11-19T11:54:01;0.40;;;0.20;;
8716;SDS011;4395;48.554;8.820;2023-11-19T11:56:05;0.73;;;0.33;;
8716;SDS011;4395;48.554;8.820;2023-11-19T11:58:09;0.40;;;0.20;;
8716;SDS011;4395;48.554;8.820;2023-11-19T12:00:11;0.93;;;0.20;;
8716;SDS011;4395;48.554;8.820;2023-11-19T12:02:24;0.37;;;0.37;;
8716;SDS011;4395;48.554;8.820;2023-11-19T12:04:29;1.30;;;0.30;;
8716;SDS011;4395;48.554;8.820;2023-11-19T12:06:33;0.77;;;0.43;;
8716;SDS011;4395;48.554;8.820;2023-11-19T12:08:36;1.23;;;0.40;;
8716;SDS011;4395;48.554;8.820;2023-11-19T12:10:43;0.50;;;0.30;;
8716;SDS011;4395;48.554;8.820;2023-11-19T12:12:46;0.93;;;0.63;;
8716;SDS011;4395;48.554;8.820;2023-11-19T12:15:05;1.03;;;0.33;;
8716;SDS011;4395;48.554;8.820;2023-11-19T12:17:25;0.93;;;0.50;;
8716;SDS011;4395;48.554;8.820;2023-11-19T12:19:42;0.50;;;0.40;;
8716;SDS011;4395;48.554;8.820;2023-11-19T12:21:46;0.77;;;0.47;;
8716;SDS011;4395;48.554;8.820;2023-11-19T12:23:49;1.57;;;0.60;;
8716;SDS011;4395;48.554;8.820;2023-11-19T12:25:52;0.73;;;0.20;;
8716;SDS011;4395;48.554;8.820;2023-11-19T12:27:54;0.97;;;0.40;;
8716;SDS011;4395;48.554;8.820;2023-11-19T12:29:57;0.63;;;0.30;;
8716;SDS011;4395;48.554;8.820;2023-11-19T12:31:59;2.00;;;0.97;;
8716;SDS011;4395;48.554;8.820;2023-11-19T12:34:07;1.87;;;1.00;;
8716;SDS011;4395;48.554;8.820;2023-11-19T12:36:15;0.50;;;0.30;;
8716;SDS011;4395;48.554;8.820;2023-11-19T12:38:19;2.97;;;1.17;;
8716;SDS011;4395;48.554;8.820;2023-11-19T12:40:23;1.23;;;0.40;;
8716;SDS011;4395;48.554;8.820;2023-11-19T12:42:34;0.50;;;0.50;;
8716;SDS011;4395;48.554;8.820;2023-11-19T12:44:37;1.50;;;0.80;;
8716;SDS011;4395;48.554;8.820;2023-11-19T12:46:40;0.57;;;0.30;;
8716;SDS011;4395;48.554;8.820;2023-11-19T12:48:43;1.33;;;0.50;;
8716;SDS011;4395;48.554;8.820;2023-11-19T12:50:52;2.10;;;0.40;;
8716;SDS011;4395;48.554;8.820;2023-11-19T12:52:57;1.70;;;0.43;;
8716;SDS011;4395;48.554;8.820;2023-11-19T12:55:00;2.00;;;0.70;;
8716;SDS011;4395;48.554;8.820;2023-11-19T12:57:04;0.70;;;0.40;;